sensor_id;sensor_type;location;lat;lon;timestamp;temperature;humidity
21271;DHT22;10795;50.796;3.860;2022-09-02T00:01:41;16.80;99.90
21271;DHT22;10795;50.796;3.860;2022-09-02T00:04:09;16.70;99.90
21271;DHT22;10795;50.796;3.860;2022-09-02T00:06:38;16.60;99.90
21271;DHT22;10795;50.796;3.860;2022-09-02T00:09:04;16.50;99.90
21271;DHT22;10795;50.796;3.860;2022-09-02T00:11:31;16.50;99.90
21271;DHT22;10795;50.796;3.860;2022-09-02T00:13:57;16.60;99.90
21271;DHT22;10795;50.796;3.860;2022-09-02T00:16:24;16.50;99.90
21271;DHT22;10795;50.796;3.860;2022-09-02T00:18:50;16.20;99.90
21271;DHT22;10795;50.796;3.860;2022-09-02T00:21:17;15.90;99.90
21271;DHT22;10795;50.796;3.860;2022-09-02T00:23:44;15.80;99.90
21271;DHT22;10795;50.796;3.860;2022-09-02T00:26:10;15.90;99.90
21271;DHT22;10795;50.796;3.860;2022-09-02T00:28:36;16.00;99.90
21271;DHT22;10795;50.796;3.860;2022-09-02T00:31:02;16.10;99.90
21271;DHT22;10795;50.796;3.860;2022-09-02T00:33:30;16.30;99.90
21271;DHT22;10795;50.796;3.860;2022-09-02T00:36:00;16.30;99.90
21271;DHT22;10795;50.796;3.860;2022-09-02T00:38:27;16.10;99.90
21271;DHT22;10795;50.796;3.860;2022-09-02T00:40:53;16.00;99.90
21271;DHT22;10795;50.796;3.860;2022-09-02T00:43:38;15.80;99.90
21271;DHT22;10795;50.796;3.860;2022-09-02T00:46:04;15.60;99.90
21271;DHT22;10795;50.796;3.860;2022-09-02T00:48:30;15.50;99.90
21271;DHT22;10795;50.796;3.860;2022-09-02T00:50:56;15.50;99.90
21271;DHT22;10795;50.796;3.860;2022-09-02T00:53:21;15.40;99.90
21271;DHT22;10795;50.796;3.860;2022-09-02T00:55:48;15.30;99.90
21271;DHT22;10795;50.796;3.860;2022-09-02T00:58:25;15.30;99.90
21271;DHT22;10795;50.796;3.860;2022-09-02T01:00:52;15.20;99.90
21271;DHT22;10795;50.796;3.860;2022-09-02T01:03:23;15.10;99.90
21271;DHT22;10795;50.796;3.860;2022-09-02T01:05:49;15.10;99.90
21271;DHT22;10795;50.796;3.860;2022-09-02T01:08:18;15.20;99.90
21271;DHT22;10795;50.796;3.860;2022-09-02T01:10:45;15.10;99.90
21271;DHT22;10795;50.796;3.860;2022-09-02T01:13:14;15.00;99.90
21271;DHT22;10795;50.796;3.860;2022-09-02T01:15:42;14.90;99.90
21271;DHT22;10795;50.796;3.860;2022-09-02T01:18:09;14.90;99.90
21271;DHT22;10795;50.796;3.860;2022-09-02T01:20:37;14.90;99.90
21271;DHT22;10795;50.796;3.860;2022-09-02T01:23:04;14.70;99.90
21271;DHT22;10795;50.796;3.860;2022-09-02T01:25:31;14.70;99.90
21271;DHT22;10795;50.796;3.860;2022-09-02T01:27:59;14.70;99.90
21271;DHT22;10795;50.796;3.860;2022-09-02T01:30:25;14.80;99.90
21271;DHT22;10795;50.796;3.860;2022-09-02T01:32:51;14.80;99.90
21271;DHT22;10795;50.796;3.860;2022-09-02T01:35:18;14.60;99.90
21271;DHT22;10795;50.796;3.860;2022-09-02T01:37:46;14.40;99.90
21271;DHT22;10795;50.796;3.860;2022-09-02T01:40:13;14.40;99.90
21271;DHT22;10795;50.796;3.860;2022-09-02T01:42:39;14.50;99.90
21271;DHT22;10795;50.796;3.860;2022-09-02T01:45:06;14.50;99.90
21271;DHT22;10795;50.796;3.860;2022-09-02T01:47:33;14.30;99.90
21271;DHT22;10795;50.796;3.860;2022-09-02T01:50:04;14.20;99.90
21271;DHT22;10795;50.796;3.860;2022-09-02T01:52:30;14.20;99.90
21271;DHT22;10795;50.796;3.860;2022-09-02T01:54:55;14.20;99.90
21271;DHT22;10795;50.796;3.860;2022-09-02T01:57:21;14.20;99.90
21271;DHT22;10795;50.796;3.860;2022-09-02T01:59:50;14.10;99.90
21271;DHT22;10795;50.796;3.860;2022-09-02T02:02:19;14.00;99.90
21271;DHT22;10795;50.796;3.860;2022-09-02T02:04:46;14.00;99.90
21271;DHT22;10795;50.796;3.860;2022-09-02T02:07:12;14.10;99.90
21271;DHT22;10795;50.796;3.860;2022-09-02T02:09:40;14.00;99.90
21271;DHT22;10795;50.796;3.860;2022-09-02T02:12:14;14.10;99.90
21271;DHT22;10795;50.796;3.860;2022-09-02T02:14:43;14.10;99.90
21271;DHT22;10795;50.796;3.860;2022-09-02T02:17:08;14.00;99.90
21271;DHT22;10795;50.796;3.860;2022-09-02T02:19:34;14.00;99.90
21271;DHT22;10795;50.796;3.860;2022-09-02T02:22:00;13.90;99.90
21271;DHT22;10795;50.796;3.860;2022-09-02T02:24:26;13.70;99.90
21271;DHT22;10795;50.796;3.860;2022-09-02T02:26:51;13.70;99.90
21271;DHT22;10795;50.796;3.860;2022-09-02T02:29:18;13.80;99.90
21271;DHT22;10795;50.796;3.860;2022-09-02T02:31:44;13.70;99.90
21271;DHT22;10795;50.796;3.860;2022-09-02T02:34:10;13.70;99.90
21271;DHT22;10795;50.796;3.860;2022-09-02T02:36:37;13.70;99.90
21271;DHT22;10795;50.796;3.860;2022-09-02T02:39:06;13.70;99.90
21271;DHT22;10795;50.796;3.860;2022-09-02T02:41:34;13.80;99.90
21271;DHT22;10795;50.796;3.860;2022-09-02T02:43:59;13.70;99.90
21271;DHT22;10795;50.796;3.860;2022-09-02T02:46:25;13.70;99.90
21271;DHT22;10795;50.796;3.860;2022-09-02T02:48:51;13.60;99.90
21271;DHT22;10795;50.796;3.860;2022-09-02T02:51:17;13.70;99.90
21271;DHT22;10795;50.796;3.860;2022-09-02T02:53:47;13.60;99.90
21271;DHT22;10795;50.796;3.860;2022-09-02T02:56:13;13.30;99.90
21271;DHT22;10795;50.796;3.860;2022-09-02T02:58:41;13.20;99.90
21271;DHT22;10795;50.796;3.860;2022-09-02T03:01:07;13.30;99.90
21271;DHT22;10795;50.796;3.860;2022-09-02T03:03:34;13.40;99.90
21271;DHT22;10795;50.796;3.860;2022-09-02T03:06:00;13.30;99.90
21271;DHT22;10795;50.796;3.860;2022-09-02T03:08:27;13.40;99.90
21271;DHT22;10795;50.796;3.860;2022-09-02T03:10:53;13.30;99.90
21271;DHT22;10795;50.796;3.860;2022-09-02T03:13:23;13.30;99.90
21271;DHT22;10795;50.796;3.860;2022-09-02T03:15:49;13.30;99.90
21271;DHT22;10795;50.796;3.860;2022-09-02T03:18:15;13.20;99.90
21271;DHT22;10795;50.796;3.860;2022-09-02T03:20:41;13.10;99.90
21271;DHT22;10795;50.796;3.860;2022-09-02T03:23:08;13.20;99.90
21271;DHT22;10795;50.796;3.860;2022-09-02T03:25:35;13.20;99.90
21271;DHT22;10795;50.796;3.860;2022-09-02T03:28:03;13.30;99.90
21271;DHT22;10795;50.796;3.860;2022-09-02T03:30:30;13.30;99.90
21271;DHT22;10795;50.796;3.860;2022-09-02T03:32:57;13.20;99.90
21271;DHT22;10795;50.796;3.860;2022-09-02T03:35:24;13.30;99.90
21271;DHT22;10795;50.796;3.860;2022-09-02T03:37:50;13.60;99.90
21271;DHT22;10795;50.796;3.860;2022-09-02T03:40:18;13.50;99.90
21271;DHT22;10795;50.796;3.860;2022-09-02T03:42:44;13.50;99.90
21271;DHT22;10795;50.796;3.860;2022-09-02T03:45:10;13.40;99.90
21271;DHT22;10795;50.796;3.860;2022-09-02T03:47:36;13.20;99.90
21271;DHT22;10795;50.796;3.860;2022-09-02T03:50:05;13.10;99.90
21271;DHT22;10795;50.796;3.860;2022-09-02T03:52:31;13.00;99.90
21271;DHT22;10795;50.796;3.860;2022-09-02T03:55:03;12.80;99.90
21271;DHT22;10795;50.796;3.860;2022-09-02T03:57:29;12.60;99.90
21271;DHT22;10795;50.796;3.860;2022-09-02T03:59:55;12.70;99.90
21271;DHT22;10795;50.796;3.860;2022-09-02T04:02:21;12.70;99.90
21271;DHT22;10795;50.796;3.860;2022-09-02T04:04:48;12.80;99.90
21271;DHT22;10795;50.796;3.860;2022-09-02T04:07:15;12.80;99.90
21271;DHT22;10795;50.796;3.860;2022-09-02T04:09:41;12.90;99.90
21271;DHT22;10795;50.796;3.860;2022-09-02T04:12:07;12.80;99.90
21271;DHT22;10795;50.796;3.860;2022-09-02T04:14:33;12.80;99.90
21271;DHT22;10795;50.796;3.860;2022-09-02T04:16:59;12.70;99.90
21271;DHT22;10795;50.796;3.860;2022-09-02T04:19:25;12.90;99.90
21271;DHT22;10795;50.796;3.860;2022-09-02T04:21:50;12.90;99.90
21271;DHT22;10795;50.796;3.860;2022-09-02T04:24:16;12.90;99.90
21271;DHT22;10795;50.796;3.860;2022-09-02T04:26:45;13.00;99.90
21271;DHT22;10795;50.796;3.860;2022-09-02T04:29:14;12.90;99.90
21271;DHT22;10795;50.796;3.860;2022-09-02T04:31:41;12.80;99.90
21271;DHT22;10795;50.796;3.860;2022-09-02T04:34:06;12.70;99.90
21271;DHT22;10795;50.796;3.860;2022-09-02T04:36:32;12.70;99.90
21271;DHT22;10795;50.796;3.860;2022-09-02T04:39:02;12.80;99.90
21271;DHT22;10795;50.796;3.860;2022-09-02T04:41:31;12.70;99.90
21271;DHT22;10795;50.796;3.860;2022-09-02T04:44:00;12.70;99.90
21271;DHT22;10795;50.796;3.860;2022-09-02T04:46:30;12.50;99.90
21271;DHT22;10795;50.796;3.860;2022-09-02T04:48:56;12.50;99.90
21271;DHT22;10795;50.796;3.860;2022-09-02T04:51:23;12.50;99.90
21271;DHT22;10795;50.796;3.860;2022-09-02T04:53:51;12.50;99.90
21271;DHT22;10795;50.796;3.860;2022-09-02T04:56:19;12.40;99.90
21271;DHT22;10795;50.796;3.860;2022-09-02T04:58:49;12.40;99.90
21271;DHT22;10795;50.796;3.860;2022-09-02T05:01:22;12.40;99.90
21271;DHT22;10795;50.796;3.860;2022-09-02T05:03:50;12.60;99.90
21271;DHT22;10795;50.796;3.860;2022-09-02T05:06:18;12.50;99.90
21271;DHT22;10795;50.796;3.860;2022-09-02T05:08:44;12.40;99.90
21271;DHT22;10795;50.796;3.860;2022-09-02T05:11:16;12.40;99.90
21271;DHT22;10795;50.796;3.860;2022-09-02T05:13:43;12.60;99.90
21271;DHT22;10795;50.796;3.860;2022-09-02T05:16:09;12.50;99.90
21271;DHT22;10795;50.796;3.860;2022-09-02T05:18:35;12.50;99.90
21271;DHT22;10795;50.796;3.860;2022-09-02T05:21:05;12.40;99.90
21271;DHT22;10795;50.796;3.860;2022-09-02T05:23:32;12.60;99.90
21271;DHT22;10795;50.796;3.860;2022-09-02T05:26:04;12.60;99.90
21271;DHT22;10795;50.796;3.860;2022-09-02T05:28:29;12.40;99.90
21271;DHT22;10795;50.796;3.860;2022-09-02T05:31:00;12.40;99.90
21271;DHT22;10795;50.796;3.860;2022-09-02T05:33:26;13.20;99.90
21271;DHT22;10795;50.796;3.860;2022-09-02T06:18:21;17.00;99.90
21271;DHT22;10795;50.796;3.860;2022-09-02T06:21:17;17.60;99.90
21271;DHT22;10795;50.796;3.860;2022-09-02T06:23:48;17.90;99.90
21271;DHT22;10795;50.796;3.860;2022-09-02T06:26:15;18.20;99.90
21271;DHT22;10795;50.796;3.860;2022-09-02T06:28:45;18.40;99.90
21271;DHT22;10795;50.796;3.860;2022-09-02T06:31:16;18.50;99.90
21271;DHT22;10795;50.796;3.860;2022-09-02T06:33:46;18.90;99.90
21271;DHT22;10795;50.796;3.860;2022-09-02T06:36:16;19.20;99.90
21271;DHT22;10795;50.796;3.860;2022-09-02T06:38:45;19.40;99.90
21271;DHT22;10795;50.796;3.860;2022-09-02T06:41:20;19.60;99.90
21271;DHT22;10795;50.796;3.860;2022-09-02T06:43:49;19.80;99.90
21271;DHT22;10795;50.796;3.860;2022-09-02T06:46:23;19.90;99.90
21271;DHT22;10795;50.796;3.860;2022-09-02T06:48:52;20.20;99.90
21271;DHT22;10795;50.796;3.860;2022-09-02T06:51:25;20.50;99.90
21271;DHT22;10795;50.796;3.860;2022-09-02T06:53:55;20.70;99.90
21271;DHT22;10795;50.796;3.860;2022-09-02T06:56:24;21.00;99.90
21271;DHT22;10795;50.796;3.860;2022-09-02T06:58:55;21.20;99.90
21271;DHT22;10795;50.796;3.860;2022-09-02T07:01:35;21.40;99.90
21271;DHT22;10795;50.796;3.860;2022-09-02T07:04:03;21.60;99.90
21271;DHT22;10795;50.796;3.860;2022-09-02T07:06:51;21.70;99.90
21271;DHT22;10795;50.796;3.860;2022-09-02T07:09:20;22.10;99.90
21271;DHT22;10795;50.796;3.860;2022-09-02T07:11:49;22.30;99.90
21271;DHT22;10795;50.796;3.860;2022-09-02T07:14:19;22.50;99.90
21271;DHT22;10795;50.796;3.860;2022-09-02T07:16:51;22.60;99.90
21271;DHT22;10795;50.796;3.860;2022-09-02T07:19:19;22.80;99.90
21271;DHT22;10795;50.796;3.860;2022-09-02T07:21:46;23.10;99.90
21271;DHT22;10795;50.796;3.860;2022-09-02T07:24:14;23.20;99.90
21271;DHT22;10795;50.796;3.860;2022-09-02T07:26:42;23.40;99.90
21271;DHT22;10795;50.796;3.860;2022-09-02T07:29:08;23.60;99.90
21271;DHT22;10795;50.796;3.860;2022-09-02T07:31:36;23.80;99.90
21271;DHT22;10795;50.796;3.860;2022-09-02T07:34:04;23.90;99.90
21271;DHT22;10795;50.796;3.860;2022-09-02T07:36:32;24.10;99.90
21271;DHT22;10795;50.796;3.860;2022-09-02T07:39:00;24.50;99.90
21271;DHT22;10795;50.796;3.860;2022-09-02T07:41:26;24.60;99.90
21271;DHT22;10795;50.796;3.860;2022-09-02T07:43:53;24.80;99.90
21271;DHT22;10795;50.796;3.860;2022-09-02T07:46:19;24.20;99.90
21271;DHT22;10795;50.796;3.860;2022-09-02T07:48:46;24.60;99.90
21271;DHT22;10795;50.796;3.860;2022-09-02T07:51:17;24.90;99.90
21271;DHT22;10795;50.796;3.860;2022-09-02T07:53:44;25.30;99.90
21271;DHT22;10795;50.796;3.860;2022-09-02T07:56:11;24.90;99.90
21271;DHT22;10795;50.796;3.860;2022-09-02T07:58:40;25.20;99.90
21271;DHT22;10795;50.796;3.860;2022-09-02T08:01:06;25.40;99.90
21271;DHT22;10795;50.796;3.860;2022-09-02T08:03:33;25.30;99.90
21271;DHT22;10795;50.796;3.860;2022-09-02T08:05:59;24.30;99.90
21271;DHT22;10795;50.796;3.860;2022-09-02T08:08:25;24.80;99.90
21271;DHT22;10795;50.796;3.860;2022-09-02T08:10:55;25.20;99.90
21271;DHT22;10795;50.796;3.860;2022-09-02T08:13:22;25.70;99.90
21271;DHT22;10795;50.796;3.860;2022-09-02T08:15:48;26.30;99.90
21271;DHT22;10795;50.796;3.860;2022-09-02T08:18:14;26.40;99.90
21271;DHT22;10795;50.796;3.860;2022-09-02T08:20:40;26.50;99.90
21271;DHT22;10795;50.796;3.860;2022-09-02T08:23:06;26.60;99.90
21271;DHT22;10795;50.796;3.860;2022-09-02T08:25:33;26.80;99.90
21271;DHT22;10795;50.796;3.860;2022-09-02T08:27:59;27.10;99.90
21271;DHT22;10795;50.796;3.860;2022-09-02T08:30:25;27.40;99.90
21271;DHT22;10795;50.796;3.860;2022-09-02T08:32:51;26.90;99.90
21271;DHT22;10795;50.796;3.860;2022-09-02T08:35:17;26.80;99.90
21271;DHT22;10795;50.796;3.860;2022-09-02T08:37:43;27.50;99.90
21271;DHT22;10795;50.796;3.860;2022-09-02T08:40:34;27.90;99.90
21271;DHT22;10795;50.796;3.860;2022-09-02T08:43:14;26.90;99.90
21271;DHT22;10795;50.796;3.860;2022-09-02T08:45:46;26.60;99.90
21271;DHT22;10795;50.796;3.860;2022-09-02T08:48:20;26.50;99.90
21271;DHT22;10795;50.796;3.860;2022-09-02T08:50:49;27.50;99.90
21271;DHT22;10795;50.796;3.860;2022-09-02T08:53:39;27.30;99.90
21271;DHT22;10795;50.796;3.860;2022-09-02T08:56:04;27.80;99.90
21271;DHT22;10795;50.796;3.860;2022-09-02T08:58:42;27.70;99.90
21271;DHT22;10795;50.796;3.860;2022-09-02T09:06:47;27.40;99.90
21271;DHT22;10795;50.796;3.860;2022-09-02T09:17:43;29.60;99.90
21271;DHT22;10795;50.796;3.860;2022-09-02T09:20:31;29.30;99.90
21271;DHT22;10795;50.796;3.860;2022-09-02T09:23:00;27.90;99.90
21271;DHT22;10795;50.796;3.860;2022-09-02T09:25:28;28.10;99.90
21271;DHT22;10795;50.796;3.860;2022-09-02T09:27:58;29.00;99.90
21271;DHT22;10795;50.796;3.860;2022-09-02T09:30:24;29.70;99.90
21271;DHT22;10795;50.796;3.860;2022-09-02T09:32:52;30.20;99.90
21271;DHT22;10795;50.796;3.860;2022-09-02T09:35:22;30.50;99.90
21271;DHT22;10795;50.796;3.860;2022-09-02T09:37:50;30.30;99.90
21271;DHT22;10795;50.796;3.860;2022-09-02T09:45:53;30.90;99.90
21271;DHT22;10795;50.796;3.860;2022-09-02T09:48:24;31.50;99.90
21271;DHT22;10795;50.796;3.860;2022-09-02T09:53:28;31.70;99.90
21271;DHT22;10795;50.796;3.860;2022-09-02T09:56:05;31.20;99.90
21271;DHT22;10795;50.796;3.860;2022-09-02T09:58:41;31.50;99.90
21271;DHT22;10795;50.796;3.860;2022-09-02T10:03:50;31.40;99.90
21271;DHT22;10795;50.796;3.860;2022-09-02T10:06:21;31.40;99.90
21271;DHT22;10795;50.796;3.860;2022-09-02T10:09:05;31.90;99.90
21271;DHT22;10795;50.796;3.860;2022-09-02T10:11:34;32.30;99.90
21271;DHT22;10795;50.796;3.860;2022-09-02T10:14:04;32.40;99.90
21271;DHT22;10795;50.796;3.860;2022-09-02T10:16:53;32.70;99.90
21271;DHT22;10795;50.796;3.860;2022-09-02T10:19:42;32.40;99.90
21271;DHT22;10795;50.796;3.860;2022-09-02T10:30:25;30.10;99.90
21271;DHT22;10795;50.796;3.860;2022-09-02T10:35:42;32.10;99.90
21271;DHT22;10795;50.796;3.860;2022-09-02T10:38:31;32.40;99.90
21271;DHT22;10795;50.796;3.860;2022-09-02T10:41:47;31.70;99.90
21271;DHT22;10795;50.796;3.860;2022-09-02T10:46:21;32.70;99.90
21271;DHT22;10795;50.796;3.860;2022-09-02T10:56:55;32.00;99.90
21271;DHT22;10795;50.796;3.860;2022-09-02T10:59:30;32.90;99.90
21271;DHT22;10795;50.796;3.860;2022-09-02T11:05:04;33.00;99.90
21271;DHT22;10795;50.796;3.860;2022-09-02T11:08:02;33.00;99.90
21271;DHT22;10795;50.796;3.860;2022-09-02T11:10:35;32.90;99.90
21271;DHT22;10795;50.796;3.860;2022-09-02T11:15:47;33.30;99.90
21271;DHT22;10795;50.796;3.860;2022-09-02T11:19:04;33.20;99.90
21271;DHT22;10795;50.796;3.860;2022-09-02T11:27:23;33.60;99.90
21271;DHT22;10795;50.796;3.860;2022-09-02T11:30:04;32.80;99.90
21271;DHT22;10795;50.796;3.860;2022-09-02T11:35:09;33.40;99.90
21271;DHT22;10795;50.796;3.860;2022-09-02T11:40:26;33.20;99.90
21271;DHT22;10795;50.796;3.860;2022-09-02T11:48:27;33.90;99.90
21271;DHT22;10795;50.796;3.860;2022-09-02T11:53:53;32.50;99.90
21271;DHT22;10795;50.796;3.860;2022-09-02T11:56:30;32.60;99.90
21271;DHT22;10795;50.796;3.860;2022-09-02T11:59:00;32.00;99.90
21271;DHT22;10795;50.796;3.860;2022-09-02T12:04:06;33.50;99.90
21271;DHT22;10795;50.796;3.860;2022-09-02T12:09:48;33.70;99.90
21271;DHT22;10795;50.796;3.860;2022-09-02T12:23:06;32.70;99.90
21271;DHT22;10795;50.796;3.860;2022-09-02T12:25:55;32.60;99.90
21271;DHT22;10795;50.796;3.860;2022-09-02T12:28:25;33.60;99.90
21271;DHT22;10795;50.796;3.860;2022-09-02T12:33:33;32.50;99.90
21271;DHT22;10795;50.796;3.860;2022-09-02T12:35:59;32.80;99.90
21271;DHT22;10795;50.796;3.860;2022-09-02T12:38:29;33.00;99.90
21271;DHT22;10795;50.796;3.860;2022-09-02T12:41:06;32.30;99.90
21271;DHT22;10795;50.796;3.860;2022-09-02T12:48:47;31.20;99.90
21271;DHT22;10795;50.796;3.860;2022-09-02T12:51:50;32.20;99.90
21271;DHT22;10795;50.796;3.860;2022-09-02T12:54:18;33.00;99.90
21271;DHT22;10795;50.796;3.860;2022-09-02T12:56:51;32.80;99.90
21271;DHT22;10795;50.796;3.860;2022-09-02T12:59:28;32.50;99.90
21271;DHT22;10795;50.796;3.860;2022-09-02T13:02:21;31.40;99.60
21271;DHT22;10795;50.796;3.860;2022-09-02T13:07:54;31.30;99.40
21271;DHT22;10795;50.796;3.860;2022-09-02T13:22:09;32.10;99.90
21271;DHT22;10795;50.796;3.860;2022-09-02T13:30:20;31.70;99.10
21271;DHT22;10795;50.796;3.860;2022-09-02T13:33:04;31.60;99.40
21271;DHT22;10795;50.796;3.860;2022-09-02T13:35:31;30.90;99.40
21271;DHT22;10795;50.796;3.860;2022-09-02T13:37:59;30.60;99.90
21271;DHT22;10795;50.796;3.860;2022-09-02T13:40:34;30.90;99.80
21271;DHT22;10795;50.796;3.860;2022-09-02T13:43:03;30.90;99.90
21271;DHT22;10795;50.796;3.860;2022-09-02T13:45:32;31.40;98.80
21271;DHT22;10795;50.796;3.860;2022-09-02T13:48:00;31.80;99.90
21271;DHT22;10795;50.796;3.860;2022-09-02T13:50:29;31.50;99.90
21271;DHT22;10795;50.796;3.860;2022-09-02T13:52:59;31.50;99.90
21271;DHT22;10795;50.796;3.860;2022-09-02T13:55:26;31.50;99.90
21271;DHT22;10795;50.796;3.860;2022-09-02T13:58:03;31.70;99.90
21271;DHT22;10795;50.796;3.860;2022-09-02T14:00:38;31.30;99.90
21271;DHT22;10795;50.796;3.860;2022-09-02T14:03:14;31.10;99.50
21271;DHT22;10795;50.796;3.860;2022-09-02T14:05:44;30.80;99.90
21271;DHT22;10795;50.796;3.860;2022-09-02T14:08:17;31.00;99.90
21271;DHT22;10795;50.796;3.860;2022-09-02T14:10:43;31.20;99.90
21271;DHT22;10795;50.796;3.860;2022-09-02T14:13:11;31.20;99.90
21271;DHT22;10795;50.796;3.860;2022-09-02T14:15:38;30.10;99.10
21271;DHT22;10795;50.796;3.860;2022-09-02T14:18:18;30.30;99.90
21271;DHT22;10795;50.796;3.860;2022-09-02T14:21:14;30.40;99.80
21271;DHT22;10795;50.796;3.860;2022-09-02T14:23:49;30.00;99.90
21271;DHT22;10795;50.796;3.860;2022-09-02T14:28:53;30.00;99.90
21271;DHT22;10795;50.796;3.860;2022-09-02T14:31:24;30.20;99.90
21271;DHT22;10795;50.796;3.860;2022-09-02T14:33:57;30.00;99.90
21271;DHT22;10795;50.796;3.860;2022-09-02T14:38:52;29.40;99.70
21271;DHT22;10795;50.796;3.860;2022-09-02T14:41:25;29.60;99.90
21271;DHT22;10795;50.796;3.860;2022-09-02T14:43:57;29.30;99.90
21271;DHT22;10795;50.796;3.860;2022-09-02T14:48:56;29.50;99.90
21271;DHT22;10795;50.796;3.860;2022-09-02T14:51:33;29.30;99.50
21271;DHT22;10795;50.796;3.860;2022-09-02T14:54:01;29.60;99.90
21271;DHT22;10795;50.796;3.860;2022-09-02T14:56:50;29.70;98.80
21271;DHT22;10795;50.796;3.860;2022-09-02T14:59:21;29.90;99.90
21271;DHT22;10795;50.796;3.860;2022-09-02T15:01:49;29.90;99.90
21271;DHT22;10795;50.796;3.860;2022-09-02T15:04:16;29.30;99.90
21271;DHT22;10795;50.796;3.860;2022-09-02T15:06:44;28.00;99.90
21271;DHT22;10795;50.796;3.860;2022-09-02T15:09:11;27.40;99.90
21271;DHT22;10795;50.796;3.860;2022-09-02T15:11:37;27.00;99.90
21271;DHT22;10795;50.796;3.860;2022-09-02T15:14:06;27.20;99.90
21271;DHT22;10795;50.796;3.860;2022-09-02T15:16:34;27.10;99.90
21271;DHT22;10795;50.796;3.860;2022-09-02T15:19:00;26.80;99.90
21271;DHT22;10795;50.796;3.860;2022-09-02T15:21:25;26.90;99.90
21271;DHT22;10795;50.796;3.860;2022-09-02T15:23:51;27.20;99.90
21271;DHT22;10795;50.796;3.860;2022-09-02T15:26:17;27.10;99.90
21271;DHT22;10795;50.796;3.860;2022-09-02T15:28:43;27.00;99.90
21271;DHT22;10795;50.796;3.860;2022-09-02T15:31:10;27.20;99.90
21271;DHT22;10795;50.796;3.860;2022-09-02T15:33:35;27.70;99.90
21271;DHT22;10795;50.796;3.860;2022-09-02T15:36:09;28.30;99.90
21271;DHT22;10795;50.796;3.860;2022-09-02T15:38:36;28.40;99.90
21271;DHT22;10795;50.796;3.860;2022-09-02T15:41:18;28.40;99.90
21271;DHT22;10795;50.796;3.860;2022-09-02T15:43:44;28.20;99.90
21271;DHT22;10795;50.796;3.860;2022-09-02T15:46:25;27.40;99.90
21271;DHT22;10795;50.796;3.860;2022-09-02T15:48:52;26.60;99.90
21271;DHT22;10795;50.796;3.860;2022-09-02T15:51:22;26.70;99.90
21271;DHT22;10795;50.796;3.860;2022-09-02T15:54:03;26.40;99.90
21271;DHT22;10795;50.796;3.860;2022-09-02T15:56:31;26.40;99.90
21271;DHT22;10795;50.796;3.860;2022-09-02T15:58:59;26.60;99.90
21271;DHT22;10795;50.796;3.860;2022-09-02T16:01:26;26.80;99.90
21271;DHT22;10795;50.796;3.860;2022-09-02T16:03:53;27.30;99.90
21271;DHT22;10795;50.796;3.860;2022-09-02T16:06:19;27.00;99.90
21271;DHT22;10795;50.796;3.860;2022-09-02T16:08:45;26.90;99.90
21271;DHT22;10795;50.796;3.860;2022-09-02T16:11:11;26.90;99.90
21271;DHT22;10795;50.796;3.860;2022-09-02T16:13:37;27.10;99.90
21271;DHT22;10795;50.796;3.860;2022-09-02T16:16:05;27.20;99.90
21271;DHT22;10795;50.796;3.860;2022-09-02T16:18:32;27.20;99.90
21271;DHT22;10795;50.796;3.860;2022-09-02T16:20:58;27.20;99.90
21271;DHT22;10795;50.796;3.860;2022-09-02T16:23:24;27.00;99.90
21271;DHT22;10795;50.796;3.860;2022-09-02T16:26:10;26.90;99.90
21271;DHT22;10795;50.796;3.860;2022-09-02T16:28:37;27.00;99.90
21271;DHT22;10795;50.796;3.860;2022-09-02T16:31:04;26.90;99.90
21271;DHT22;10795;50.796;3.860;2022-09-02T16:33:30;27.10;99.90
21271;DHT22;10795;50.796;3.860;2022-09-02T16:35:56;27.10;99.90
21271;DHT22;10795;50.796;3.860;2022-09-02T16:38:22;27.20;99.90
21271;DHT22;10795;50.796;3.860;2022-09-02T16:40:52;26.40;99.90
21271;DHT22;10795;50.796;3.860;2022-09-02T16:43:18;26.20;99.90
21271;DHT22;10795;50.796;3.860;2022-09-02T16:45:50;25.70;99.90
21271;DHT22;10795;50.796;3.860;2022-09-02T16:48:22;26.20;99.90
21271;DHT22;10795;50.796;3.860;2022-09-02T16:50:48;26.40;99.90
21271;DHT22;10795;50.796;3.860;2022-09-02T16:53:15;26.70;99.90
21271;DHT22;10795;50.796;3.860;2022-09-02T16:55:44;26.80;99.90
21271;DHT22;10795;50.796;3.860;2022-09-02T16:58:12;26.90;99.90
21271;DHT22;10795;50.796;3.860;2022-09-02T17:00:40;26.80;99.90
21271;DHT22;10795;50.796;3.860;2022-09-02T17:03:06;25.50;99.90
21271;DHT22;10795;50.796;3.860;2022-09-02T17:05:33;25.00;99.90
21271;DHT22;10795;50.796;3.860;2022-09-02T17:07:59;25.40;99.90
21271;DHT22;10795;50.796;3.860;2022-09-02T17:10:30;25.60;99.90
21271;DHT22;10795;50.796;3.860;2022-09-02T17:12:57;25.20;99.90
21271;DHT22;10795;50.796;3.860;2022-09-02T17:15:29;25.30;99.90
21271;DHT22;10795;50.796;3.860;2022-09-02T17:17:55;25.60;99.90
21271;DHT22;10795;50.796;3.860;2022-09-02T17:20:21;26.10;99.90
21271;DHT22;10795;50.796;3.860;2022-09-02T17:22:48;26.10;99.90
21271;DHT22;10795;50.796;3.860;2022-09-02T17:25:14;26.20;99.90
21271;DHT22;10795;50.796;3.860;2022-09-02T17:27:40;26.20;99.90
21271;DHT22;10795;50.796;3.860;2022-09-02T17:30:09;25.50;99.90
21271;DHT22;10795;50.796;3.860;2022-09-02T17:32:38;25.80;99.90
21271;DHT22;10795;50.796;3.860;2022-09-02T17:35:09;26.00;99.90
21271;DHT22;10795;50.796;3.860;2022-09-02T17:37:35;26.00;99.90
21271;DHT22;10795;50.796;3.860;2022-09-02T17:40:03;25.60;99.90
21271;DHT22;10795;50.796;3.860;2022-09-02T17:42:29;25.50;99.90
21271;DHT22;10795;50.796;3.860;2022-09-02T17:44:55;24.50;99.90
21271;DHT22;10795;50.796;3.860;2022-09-02T17:47:22;23.70;99.90
21271;DHT22;10795;50.796;3.860;2022-09-02T17:49:48;23.80;99.90
21271;DHT22;10795;50.796;3.860;2022-09-02T17:52:19;23.60;99.90
21271;DHT22;10795;50.796;3.860;2022-09-02T17:54:50;24.30;99.90
21271;DHT22;10795;50.796;3.860;2022-09-02T18:00:18;24.90;99.90
21271;DHT22;10795;50.796;3.860;2022-09-02T18:10:56;25.00;99.90
21271;DHT22;10795;50.796;3.860;2022-09-02T18:13:30;25.10;99.90
21271;DHT22;10795;50.796;3.860;2022-09-02T18:19:08;24.70;99.90
21271;DHT22;10795;50.796;3.860;2022-09-02T18:26:58;25.00;99.90
21271;DHT22;10795;50.796;3.860;2022-09-02T18:40:51;25.30;99.90
21271;DHT22;10795;50.796;3.860;2022-09-02T18:46:16;24.70;99.90
21271;DHT22;10795;50.796;3.860;2022-09-02T18:48:45;24.70;99.90
21271;DHT22;10795;50.796;3.860;2022-09-02T18:53:48;24.70;99.90
21271;DHT22;10795;50.796;3.860;2022-09-02T18:56:18;25.20;99.90
21271;DHT22;10795;50.796;3.860;2022-09-02T18:58:57;24.80;99.90
21271;DHT22;10795;50.796;3.860;2022-09-02T19:01:28;23.60;99.90
21271;DHT22;10795;50.796;3.860;2022-09-02T19:04:00;24.00;99.90
21271;DHT22;10795;50.796;3.860;2022-09-02T19:06:28;24.50;99.90
21271;DHT22;10795;50.796;3.860;2022-09-02T19:09:03;24.30;99.90